Thalassa Hellas — 9V2228 — position and weather

sailwx.info

Track history (hours):
 
Tides and Currents Weather Stations Pressure Air Temp Water Temp Dewpoint Dewpoint Depression Visibility Wind Speed Wind Dir Waves Ship Positions

Thalassa Hellas

Last reported at 2018-Feb-25 23:30 UTC. Time now 2018-Feb-25 23:37 UTC.
Position N 51°57' E 004°03'.

Length 368 m; draft 11.7 m.

Type: Ship (hazmat cat A). MMSI: 563377000.

Date/timePositionNaut miles runAvg speedWind from/ knotsBaromVisibWave heightAir tempDewpointWater temp
2018-Feb-25 23:30N 51°57' E 004°03'0 0.0
2018-Feb-25 23:00N 51°57' E 004°03'0 0.0
2018-Feb-25 22:30N 51°57' E 004°03'0 0.0
2018-Feb-25 22:00N 51°57' E 004°03'0 0.0
2018-Feb-25 21:30N 51°57' E 004°03'0 0.0
2018-Feb-25 21:00N 51°57' E 004°03'0 0.0
2018-Feb-25 20:30N 51°57' E 004°03'0 0.0
2018-Feb-25 20:00N 51°57' E 004°03'0 0.0
2018-Feb-25 19:30N 51°57' E 004°03'0 0.0
2018-Feb-25 19:00N 51°57' E 004°03'0 0.0
2018-Feb-25 18:30N 51°57' E 004°03'0 0.0
2018-Feb-25 18:00N 51°57' E 004°03'0 0.0
2018-Feb-25 17:30N 51°57' E 004°03'0 0.0
2018-Feb-25 17:00N 51°57' E 004°03'0 0.0
2018-Feb-25 16:30N 51°57' E 004°04'0 0.0
2018-Feb-25 16:00N 51°57' E 004°03'0 0.0
2018-Feb-25 15:30N 51°57' E 004°03'0 0.0
2018-Feb-25 15:00N 51°57' E 004°03'0 0.0
2018-Feb-25 14:30N 51°57' E 004°03'0 0.0
2018-Feb-25 14:00N 51°57' E 004°04'0 0.0
2018-Feb-25 13:30N 51°57' E 004°03'0 0.0
2018-Feb-25 13:00N 51°57' E 004°04'0 0.0
2018-Feb-25 12:30N 51°57' E 004°03'0 0.0
2018-Feb-25 12:00N 51°57' E 004°04'0 0.1
2018-Feb-25 11:30N 51°57' E 004°03'0 0.0
2018-Feb-25 11:00N 51°57' E 004°03'0 0.0
2018-Feb-25 10:30N 51°57' E 004°03'0 0.0
2018-Feb-25 10:00N 51°57' E 004°03'0 0.0
2018-Feb-25 09:30N 51°57' E 004°03'0 0.0
2018-Feb-25 09:00N 51°57' E 004°03'0 0.0
2018-Feb-25 08:30N 51°57' E 004°03'0 0.0
2018-Feb-25 08:00N 51°57' E 004°03'0 0.0
2018-Feb-25 07:30N 51°57' E 004°03'0 0.0
2018-Feb-25 07:00N 51°57' E 004°03'0 0.0
2018-Feb-25 06:30N 51°57' E 004°03'0 0.0
2018-Feb-25 06:00N 51°57' E 004°04'0 0.0
2018-Feb-25 05:30N 51°57' E 004°03'0 0.0
2018-Feb-25 05:00N 51°57' E 004°03'0 0.0
2018-Feb-25 04:30N 51°57' E 004°03'0 0.0
2018-Feb-25 04:00N 51°57' E 004°03'0 0.0
2018-Feb-25 03:30N 51°57' E 004°03'0 0.0
2018-Feb-25 03:00N 51°57' E 004°03'0 0.0
2018-Feb-25 02:30N 51°57' E 004°03'0 0.0
2018-Feb-25 02:00N 51°57' E 004°03'0 0.0
2018-Feb-25 01:30N 51°57' E 004°03'0 0.0
2018-Feb-25 01:00N 51°57' E 004°03'0 0.0
2018-Feb-25 00:30N 51°57' E 004°03'0 0.0
2018-Feb-25 00:00N 51°57' E 004°03'0 0.0
2018-Feb-24 23:30N 51°57' E 004°03'0 0.0
2018-Feb-24 23:00N 51°57' E 004°03'0 0.0
2018-Feb-24 22:30N 51°57' E 004°03'0 0.0
2018-Feb-24 22:00N 51°57' E 004°03'0 0.0
2018-Feb-24 21:30N 51°57' E 004°03'0 0.0
2018-Feb-24 21:00N 51°57' E 004°03'0 0.0
2018-Feb-24 20:30N 51°57' E 004°03'0 0.0
2018-Feb-24 20:00N 51°57' E 004°03'0 0.0
2018-Feb-24 19:30N 51°57' E 004°03'0 0.0
2018-Feb-24 19:00N 51°57' E 004°03'0 0.0
2018-Feb-24 18:30N 51°57' E 004°03'0 0.0
2018-Feb-24 18:00N 51°57' E 004°03'0 0.0
2018-Feb-24 17:30N 51°57' E 004°03'0 0.0
2018-Feb-24 17:00N 51°57' E 004°03'0 0.0
2018-Feb-24 16:30N 51°57' E 004°03'0 0.0
2018-Feb-24 16:00N 51°57' E 004°03'0 0.0
2018-Feb-24 15:30N 51°57' E 004°03'0 0.0
2018-Feb-24 15:00N 51°57' E 004°03'0 0.0
2018-Feb-24 14:30N 51°57' E 004°03'0 0.0
2018-Feb-24 14:00N 51°57' E 004°03'0 0.0
2018-Feb-24 13:30N 51°57' E 004°03'0 1.0
2018-Feb-24 13:00N 51°57' E 004°04'2 3.6
2018-Feb-24 12:30N 51°59' E 004°05'5 9.4
2018-Feb-24 12:00N 52°00' E 003°58'612.2
2018-Feb-24 11:30N 52°01' E 003°48'2 3.9
2018-Feb-24 11:00N 52°02' E 003°45'3 5.4
2018-Feb-24 10:30N 52°04' E 003°45'3 6.1
2018-Feb-24 10:00N 52°07' E 003°46'4 7.9
2018-Feb-24 09:30N 52°11' E 003°46'3 5.8
2018-Feb-24 09:00N 52°13' E 003°42'3 6.8
2018-Feb-24 08:30N 52°16' E 003°39'1 2.9
2018-Feb-24 08:00N 52°15' E 003°38'1 1.8
2018-Feb-24 07:30N 52°15' E 003°39'1 1.8
2018-Feb-24 07:00N 52°14' E 003°40'1 1.9
2018-Feb-24 06:30N 52°13' E 003°41'1 1.9
2018-Feb-24 06:00N 52°13' E 003°42'0 0.6
2018-Feb-24 05:29N 52°12' E 003°42'0 0.2
2018-Feb-24 04:59N 52°12' E 003°42'0 0.0
2018-Feb-24 04:29N 52°12' E 003°42'0 0.0
2018-Feb-24 03:59N 52°12' E 003°42'0 0.0
2018-Feb-24 03:29N 52°12' E 003°42'0 0.0
2018-Feb-24 02:59N 52°12' E 003°42'0 0.0
2018-Feb-24 02:29N 52°12' E 003°42'0 0.0
2018-Feb-24 01:59N 52°12' E 003°42'0 0.0
2018-Feb-24 01:29N 52°12' E 003°42'0 0.0
2018-Feb-24 00:59N 52°12' E 003°42'0 0.0
2018-Feb-24 00:29N 52°12' E 003°42'0 0.0
2018-Feb-23 23:59N 52°12' E 003°42'0 0.0
2018-Feb-23 23:29N 52°12' E 003°42'0 0.0
2018-Feb-23 22:59N 52°12' E 003°42'0 0.0
2018-Feb-23 22:26N 52°12' E 003°42'0 0.1
2018-Feb-23 21:59N 52°12' E 003°42'0 0.0
2018-Feb-23 21:26N 52°12' E 003°42'0 0.0
2018-Feb-23 20:59N 52°12' E 003°42'0 0.0
2018-Feb-23 20:29N 52°12' E 003°42'0 0.0
2018-Feb-23 19:59N 52°12' E 003°42'0 0.0
2018-Feb-23 19:29N 52°12' E 003°42'0 0.0
2018-Feb-23 18:59N 52°12' E 003°42'0 0.1
2018-Feb-23 18:29N 52°12' E 003°42'0 0.0
2018-Feb-23 17:59N 52°12' E 003°42'0 0.1
2018-Feb-23 17:29N 52°12' E 003°42'0 0.0
2018-Feb-23 16:59N 52°12' E 003°42'0 0.0
2018-Feb-23 16:29N 52°12' E 003°42'0 0.0
2018-Feb-23 15:56N 52°12' E 003°42'0 0.0
2018-Feb-23 15:29N 52°12' E 003°42'0 0.0
2018-Feb-23 14:59N 52°12' E 003°42'0 0.1
2018-Feb-23 14:29N 52°12' E 003°42'0 0.0
2018-Feb-23 13:59N 52°12' E 003°42'0 0.0
2018-Feb-23 13:26N 52°12' E 003°42'0 0.0
2018-Feb-23 12:59N 52°12' E 003°42'0 0.0
2018-Feb-23 12:29N 52°12' E 003°42'0 0.1
2018-Feb-23 11:59N 52°12' E 003°42'1 1.6
2018-Feb-23 11:30N 52°13' E 003°41'4 7.7
2018-Feb-23 11:00N 52°16' E 003°44'612.0
2018-Feb-23 10:30N 52°21' E 003°48'612.4
2018-Feb-23 10:00N 52°28' E 003°50'612.3
2018-Feb-23 09:30N 52°34' E 003°52'612.2
2018-Feb-23 09:00N 52°40' E 003°52'612.4
2018-Feb-23 08:30N 52°46' E 003°55'612.1
2018-Feb-23 08:00N 52°52' E 003°57'611.5
2018-Feb-23 07:30N 52°57' E 004°00'510.4
2018-Feb-23 07:00N 53°00' E 004°07'611.8
2018-Feb-23 06:30N 53°04' E 004°15'714.4
2018-Feb-23 06:00N 53°09' E 004°24'814.8
2018-Feb-23 05:28N 53°15' E 004°30'714.2
2018-Feb-23 04:58N 53°22' E 004°35'714.2
2018-Feb-23 04:29N 53°28' E 004°41'714.0
2018-Feb-23 04:00N 53°32' E 004°50'714.0
2018-Feb-23 03:30N 53°34' E 005°01'713.9
2018-Feb-23 02:58N 53°37' E 005°13'613.4
2018-Feb-23 02:29N 53°39' E 005°23'912.7
2018-Feb-23 01:47N 53°42' E 005°37'8013.1
2018-Feb-22 19:42N 54°02' E 007°48'314.5
2018-Feb-22 19:31N 54°01' E 007°53'814.7
2018-Feb-22 18:58N 54°01' E 008°06'715.1
2018-Feb-22 18:30N 53°60' E 008°18'1019.7
2018-Feb-22 18:01N 53°58' E 008°35'815.7
2018-Feb-22 17:30N 53°52' E 008°44'612.5
2018-Feb-22 17:00N 53°51' E 008°54'612.2
2018-Feb-22 16:30N 53°52' E 009°04'5 9.2
2018-Feb-22 16:00N 53°53' E 009°12'510.6
2018-Feb-22 15:30N 53°51' E 009°20'611.0
2018-Feb-22 15:00N 53°46' E 009°24'5 9.9
2018-Feb-22 14:30N 53°42' E 009°30'510.9
2018-Feb-22 14:00N 53°37' E 009°33'612.2
2018-Feb-22 13:30N 53°34' E 009°42'510.5
2018-Feb-22 13:00N 53°33' E 009°51'3 5.4
2018-Feb-22 12:30N 53°32' E 009°55'0 0.1
2018-Feb-22 11:58N 53°32' E 009°55'0 0.0
2018-Feb-22 11:28N 53°32' E 009°55'0 0.0
2018-Feb-22 10:58N 53°32' E 009°55'0 0.0
2018-Feb-22 10:28N 53°32' E 009°55'0 0.0
2018-Feb-22 09:58N 53°32' E 009°55'0 0.0
2018-Feb-22 09:28N 53°32' E 009°55'0 0.0
2018-Feb-22 08:58N 53°32' E 009°55'0 0.0
2018-Feb-22 08:28N 53°32' E 009°55'0 0.0
2018-Feb-22 07:58N 53°32' E 009°55'0 0.0
2018-Feb-22 07:28N 53°32' E 009°55'0 0.0
2018-Feb-22 06:58N 53°32' E 009°55'0 0.0
2018-Feb-22 06:28N 53°32' E 009°55'0 0.0
2018-Feb-22 05:58N 53°32' E 009°55'0 0.0
2018-Feb-22 05:28N 53°32' E 009°55'0 0.0
2018-Feb-22 04:58N 53°32' E 009°55'0 0.0
2018-Feb-22 04:28N 53°32' E 009°55'0 0.0
2018-Feb-22 03:58N 53°32' E 009°55'0 0.0
2018-Feb-22 03:28N 53°32' E 009°55'0 0.0
2018-Feb-22 02:58N 53°32' E 009°55'0 0.0
2018-Feb-22 02:28N 53°32' E 009°55'0 0.0
2018-Feb-22 01:58N 53°32' E 009°55'0 0.0
2018-Feb-22 01:28N 53°32' E 009°55'0 0.0
2018-Feb-22 00:58N 53°32' E 009°55'0 0.0
2018-Feb-22 00:28N 53°32' E 009°55'0 0.0
2018-Feb-21 23:58N 53°32' E 009°55'0 0.0
2018-Feb-21 23:28N 53°32' E 009°55'0 0.0
2018-Feb-21 22:58N 53°32' E 009°55'0 0.0
2018-Feb-21 22:28N 53°32' E 009°55'0 0.0
2018-Feb-21 21:58N 53°32' E 009°55'0 0.1
2018-Feb-21 21:28N 53°32' E 009°55'0 0.1
2018-Feb-21 20:58N 53°32' E 009°55'0 0.0
2018-Feb-21 20:28N 53°32' E 009°55'0 0.0
2018-Feb-21 19:58N 53°32' E 009°55'0 0.0
2018-Feb-21 19:28N 53°32' E 009°55'0 0.0
2018-Feb-21 18:58N 53°32' E 009°55'0 0.0
2018-Feb-21 18:28N 53°32' E 009°55'0 0.0
2018-Feb-21 17:58N 53°32' E 009°55'0 0.0
2018-Feb-21 17:28N 53°32' E 009°55'0 0.0
2018-Feb-21 16:58N 53°32' E 009°55'0 0.0
2018-Feb-21 16:28N 53°32' E 009°55'0 0.0
2018-Feb-21 15:58N 53°32' E 009°55'0 0.0
2018-Feb-21 15:28N 53°32' E 009°55'0 0.0
2018-Feb-21 14:58N 53°32' E 009°55'0 0.0
2018-Feb-21 14:28N 53°32' E 009°55'0 0.0
2018-Feb-21 13:58N 53°32' E 009°55'0 0.0
2018-Feb-21 13:28N 53°32' E 009°55'0 0.0
2018-Feb-21 12:58N 53°32' E 009°55'0 0.1
2018-Feb-21 12:28N 53°32' E 009°55'0 0.1
2018-Feb-21 11:58N 53°32' E 009°55'0 0.0
2018-Feb-21 11:28N 53°32' E 009°55'0 0.0
2018-Feb-21 10:58N 53°32' E 009°55'0 0.0
2018-Feb-21 10:25N 53°32' E 009°55'0 0.0
2018-Feb-21 09:58N 53°32' E 009°55'0 0.0
2018-Feb-21 09:28N 53°32' E 009°55'0 0.0
2018-Feb-21 08:58N 53°32' E 009°55'0 0.0
2018-Feb-21 08:28N 53°32' E 009°55'0 0.0
2018-Feb-21 07:58N 53°32' E 009°55'0 0.0
2018-Feb-21 07:28N 53°32' E 009°55'0 0.0
2018-Feb-21 06:58N 53°32' E 009°55'0 0.0
2018-Feb-21 06:28N 53°32' E 009°55'0 0.0
2018-Feb-21 05:58N 53°32' E 009°55'0 0.0
2018-Feb-21 05:28N 53°32' E 009°55'0 0.0
2018-Feb-21 04:58N 53°32' E 009°55'0 0.0
2018-Feb-21 04:28N 53°32' E 009°55'0 0.0
2018-Feb-21 03:58N 53°32' E 009°55'0 0.0
2018-Feb-21 03:28N 53°32' E 009°55'0 0.0
2018-Feb-21 02:58N 53°32' E 009°55'0 0.0
2018-Feb-21 02:28N 53°32' E 009°55'0 0.0
2018-Feb-21 01:58N 53°32' E 009°55'0 0.0
2018-Feb-21 01:28N 53°32' E 009°55'0 0.1
2018-Feb-21 00:58N 53°32' E 009°55'0 0.1
2018-Feb-21 00:28N 53°32' E 009°55'0 0.0
2018-Feb-20 23:58N 53°32' E 009°55'0 0.0
2018-Feb-20 23:28N 53°32' E 009°55'0 0.0
2018-Feb-20 22:58N 53°32' E 009°55'0 0.0
2018-Feb-20 22:28N 53°32' E 009°55'0 0.0
2018-Feb-20 21:58N 53°32' E 009°55'0 0.0
2018-Feb-20 21:28N 53°32' E 009°55'0 0.0
2018-Feb-20 20:58N 53°32' E 009°55'0 0.0
2018-Feb-20 20:28N 53°32' E 009°55'0 0.0
2018-Feb-20 19:58N 53°32' E 009°55'0 0.0
2018-Feb-20 19:28N 53°32' E 009°55'0 0.0
2018-Feb-20 18:58N 53°32' E 009°55'0 1.0
2018-Feb-20 18:30N 53°32' E 009°54'1 2.7
2018-Feb-20 18:00N 53°33' E 009°52'4 7.6
2018-Feb-20 17:30N 53°34' E 009°46'511.0
2018-Feb-20 17:01N 53°35' E 009°37'510.4
2018-Feb-20 16:30N 53°39' E 009°31'612.8
2018-Feb-20 16:00N 53°44' E 009°26'713.9
2018-Feb-20 15:31N 53°50' E 009°20'714.0
2018-Feb-20 15:01N 53°53' E 009°09'510.1
2018-Feb-20 14:30N 53°51' E 009°01'611.5
2018-Feb-20 14:00N 53°50' E 008°51'510.5
2018-Feb-20 13:30N 53°52' E 008°43'713.9
2018-Feb-20 13:00N 53°58' E 008°35'816.5
2018-Feb-20 12:30N 53°59' E 008°21'815.6
2018-Feb-20 12:00N 53°59' E 008°08'612.4
2018-Feb-20 11:29N 54°02' E 007°58'1 2.0
2018-Feb-20 11:00N 54°02' E 007°56'2 3.1
2018-Feb-20 10:30N 54°03' E 007°54'4 7.7
2018-Feb-20 10:00N 54°05' E 007°48'5 9.9
2018-Feb-20 09:30N 54°07' E 007°41'5 9.6
2018-Feb-20 09:00N 54°11' E 007°35'110 8.3
2018-Feb-19 19:47N 53°52' E 004°31'414.2
2018-Feb-19 19:29N 53°49' E 004°26'714.1
2018-Feb-19 19:00N 53°45' E 004°17'714.1
2018-Feb-19 18:30N 53°40' E 004°07'814.1
2018-Feb-19 17:57N 53°36' E 003°57'11611.5
2018-Feb-19 07:52N 51°56' E 002°20'410.9
2018-Feb-19 07:30N 51°54' E 002°14'611.1
2018-Feb-19 07:00N 51°52' E 002°05'611.4
2018-Feb-19 06:30N 51°50' E 001°57'510.7
2018-Feb-19 06:00N 51°48' E 001°49'5 9.8
2018-Feb-19 05:30N 51°50' E 001°42'510.1
2018-Feb-19 05:01N 51°52' E 001°34'611.2
2018-Feb-19 04:30N 51°56' E 001°27'611.1
2018-Feb-19 04:00N 51°57' E 001°19'1 2.6
2018-Feb-19 03:30N 51°58' E 001°17'0 0.0
2018-Feb-19 03:00N 51°58' E 001°17'0 0.0
2018-Feb-19 02:30N 51°58' E 001°17'0 0.0
2018-Feb-19 02:00N 51°58' E 001°17'0 0.0
2018-Feb-19 01:30N 51°58' E 001°17'0 0.0
2018-Feb-19 01:00N 51°58' E 001°17'0 0.0
2018-Feb-19 00:30N 51°58' E 001°17'0 0.0
2018-Feb-19 00:00N 51°58' E 001°17'0 0.0
2018-Feb-18 23:30N 51°58' E 001°17'0 0.0
2018-Feb-18 23:00N 51°58' E 001°17'0 0.0
2018-Feb-18 22:30N 51°58' E 001°17'0 0.0
2018-Feb-18 22:00N 51°58' E 001°17'0 0.0
2018-Feb-18 21:30N 51°58' E 001°17'0 0.0
2018-Feb-18 21:00N 51°58' E 001°17'0 0.0
2018-Feb-18 20:30N 51°58' E 001°17'0 0.0
2018-Feb-18 20:00N 51°58' E 001°17'0 0.0
2018-Feb-18 19:30N 51°58' E 001°17'0 0.0
2018-Feb-18 19:00N 51°58' E 001°17'0 0.0
2018-Feb-18 18:30N 51°58' E 001°17'0 0.1
2018-Feb-18 18:00N 51°58' E 001°17'0 0.1
2018-Feb-18 17:30N 51°58' E 001°17'0 0.0
2018-Feb-18 17:00N 51°58' E 001°17'0 0.0
2018-Feb-18 16:30N 51°58' E 001°17'0 0.0
2018-Feb-18 16:00N 51°58' E 001°17'0 0.0
2018-Feb-18 15:30N 51°58' E 001°17'0 0.0
2018-Feb-18 15:00N 51°58' E 001°17'0 0.0
2018-Feb-18 14:30N 51°58' E 001°17'0 0.0
2018-Feb-18 14:00N 51°58' E 001°17'0 0.0
2018-Feb-18 13:30N 51°58' E 001°17'0 0.0
2018-Feb-18 13:00N 51°58' E 001°17'0 0.0
2018-Feb-18 12:30N 51°58' E 001°17'0 0.0
2018-Feb-18 12:00N 51°58' E 001°17'0 0.0
2018-Feb-18 11:30N 51°58' E 001°17'0 0.0
2018-Feb-18 11:00N 51°58' E 001°17'0 0.0
2018-Feb-18 10:30N 51°58' E 001°17'0 0.0
2018-Feb-18 10:00N 51°58' E 001°17'0 0.0
2018-Feb-18 09:30N 51°58' E 001°17'0 0.0
2018-Feb-18 09:00N 51°58' E 001°17'0 0.0
2018-Feb-18 08:30N 51°58' E 001°17'0 0.0
2018-Feb-18 08:00N 51°58' E 001°17'0 0.0
2018-Feb-18 07:30N 51°58' E 001°17'0 0.0
2018-Feb-18 07:00N 51°58' E 001°17'0 0.0
2018-Feb-18 06:30N 51°58' E 001°17'0 0.0
2018-Feb-18 06:00N 51°58' E 001°17'0 0.0
2018-Feb-18 05:30N 51°58' E 001°17'0 0.0
2018-Feb-18 05:00N 51°58' E 001°17'0 0.0
2018-Feb-18 04:30N 51°58' E 001°17'0 0.0
2018-Feb-18 04:00N 51°58' E 001°17'0 0.0
2018-Feb-18 03:30N 51°58' E 001°17'0 0.0
2018-Feb-18 03:00N 51°58' E 001°17'0 0.0
2018-Feb-18 02:30N 51°58' E 001°17'0 0.0
2018-Feb-18 02:00N 51°58' E 001°17'0 0.0
2018-Feb-18 01:30N 51°58' E 001°17'0 0.0
2018-Feb-18 01:00N 51°58' E 001°17'0 0.0
2018-Feb-18 00:30N 51°58' E 001°17'0 0.0
2018-Feb-18 00:00N 51°58' E 001°17'0 0.0
2018-Feb-17 23:30N 51°58' E 001°17'0 0.0
2018-Feb-17 23:00N 51°58' E 001°17'0 0.0
2018-Feb-17 22:30N 51°58' E 001°17'0 0.0
2018-Feb-17 22:00N 51°58' E 001°17'0 0.0
2018-Feb-17 21:30N 51°58' E 001°17'0 0.0
2018-Feb-17 21:00N 51°58' E 001°17'0 0.0
2018-Feb-17 20:30N 51°58' E 001°17'0 0.0
2018-Feb-17 20:00N 51°58' E 001°17'0 0.0
2018-Feb-17 19:30N 51°58' E 001°17'0 0.0
2018-Feb-17 19:00N 51°58' E 001°17'0 0.0
2018-Feb-17 18:30N 51°58' E 001°17'0 0.0
2018-Feb-17 18:00N 51°58' E 001°17'0 0.0
2018-Feb-17 17:30N 51°58' E 001°17'0 0.0
2018-Feb-17 17:00N 51°58' E 001°17'0 0.0
2018-Feb-17 16:30N 51°58' E 001°17'0 0.0
2018-Feb-17 16:00N 51°58' E 001°17'0 0.0
2018-Feb-17 15:30N 51°58' E 001°17'0 0.0
2018-Feb-17 15:00N 51°58' E 001°17'0 0.0
2018-Feb-17 14:30N 51°58' E 001°17'0 0.0
2018-Feb-17 14:00N 51°58' E 001°17'0 0.0
2018-Feb-17 13:30N 51°58' E 001°17'0 0.0
2018-Feb-17 13:00N 51°58' E 001°17'0 0.0
2018-Feb-17 12:30N 51°58' E 001°17'0 0.0
2018-Feb-17 12:00N 51°58' E 001°17'0 0.0
2018-Feb-17 11:30N 51°58' E 001°17'0 0.0
2018-Feb-17 11:00N 51°58' E 001°17'0 0.0
2018-Feb-17 10:30N 51°58' E 001°17'0 0.0
2018-Feb-17 10:00N 51°58' E 001°17'0 0.0
2018-Feb-17 09:30N 51°58' E 001°17'0 0.0
2018-Feb-17 09:00N 51°58' E 001°17'0 0.0
2018-Feb-17 08:30N 51°58' E 001°17'0 0.0
2018-Feb-17 08:00N 51°58' E 001°17'0 0.0
2018-Feb-17 07:30N 51°58' E 001°17'0 0.0
2018-Feb-17 07:00N 51°58' E 001°17'0 0.0
2018-Feb-17 06:30N 51°58' E 001°17'0 0.0
2018-Feb-17 06:00N 51°58' E 001°17'0 0.0
2018-Feb-17 05:30N 51°58' E 001°17'0 0.0
2018-Feb-17 05:00N 51°58' E 001°17'0 0.0
2018-Feb-17 04:31N 51°58' E 001°17'1 1.1
2018-Feb-17 04:01N 51°57' E 001°18'1 1.9
2018-Feb-17 03:30N 51°57' E 001°19'3 6.0
2018-Feb-17 03:01N 51°56' E 001°23'612.3
2018-Feb-17 02:30N 51°56' E 001°33'5 9.7
2018-Feb-17 02:00N 51°52' E 001°38'3 6.9
2018-Feb-17 01:31N 51°51' E 001°44'611.1
2018-Feb-17 01:01N 51°49' E 001°52'713.8
2018-Feb-17 00:30N 51°52' E 002°02'714.1
2018-Feb-17 00:00N 51°55' E 002°13'4 8.9
2018-Feb-16 23:30N 51°56' E 002°20'510.0
2018-Feb-16 23:00N 51°57' E 002°28'611.9
2018-Feb-16 22:30N 51°59' E 002°37'713.4
2018-Feb-16 22:00N 52°01' E 002°47'713.3
2018-Feb-16 21:30N 52°02' E 002°58'713.2
2018-Feb-16 21:00N 52°03' E 003°08'713.1
2018-Feb-16 20:30N 52°04' E 003°19'713.0
2018-Feb-16 20:00N 52°04' E 003°30'612.9
2018-Feb-16 19:30N 52°04' E 003°40'713.5
2018-Feb-16 19:00N 52°03' E 003°51'4 8.0
2018-Feb-16 18:30N 52°01' E 003°57'612.4
2018-Feb-16 18:00N 51°58' E 004°05'2 3.1
2018-Feb-16 17:30N 51°58' E 004°03'0 0.8
2018-Feb-16 16:59N 51°58' E 004°02'0 0.0
2018-Feb-16 16:29N 51°58' E 004°02'0 0.0
2018-Feb-16 15:59N 51°58' E 004°02'0 0.0
2018-Feb-16 15:29N 51°58' E 004°02'0 0.0
2018-Feb-16 14:56N 51°58' E 004°02'0 0.0
2018-Feb-16 14:29N 51°58' E 004°02'0 0.0
2018-Feb-16 13:59N 51°58' E 004°02'0 0.0
2018-Feb-16 13:29N 51°58' E 004°02'0 0.0
2018-Feb-16 12:59N 51°58' E 004°02'0 0.0
2018-Feb-16 12:29N 51°58' E 004°02'0 0.0
2018-Feb-16 11:59N 51°58' E 004°02'0 0.0
2018-Feb-16 11:29N 51°58' E 004°02'0 0.0
2018-Feb-16 10:56N 51°58' E 004°02'0 0.0
2018-Feb-16 10:29N 51°58' E 004°02'0 0.0
2018-Feb-16 09:59N 51°58' E 004°02'0 0.0
2018-Feb-16 09:29N 51°58' E 004°02'0 0.0
2018-Feb-16 08:59N 51°58' E 004°02'0 0.0
2018-Feb-16 08:29N 51°58' E 004°02'0 0.0
2018-Feb-16 07:59N 51°58' E 004°02'0 0.0
2018-Feb-16 07:29N 51°58' E 004°02'0 0.0
2018-Feb-16 06:59N 51°58' E 004°02'0 0.0
2018-Feb-16 06:29N 51°58' E 004°02'0 0.0
2018-Feb-16 05:59N 51°58' E 004°02'0 0.0
2018-Feb-16 05:29N 51°58' E 004°02'0 0.0
2018-Feb-16 04:59N 51°58' E 004°02'0 0.0
2018-Feb-16 04:29N 51°58' E 004°02'0 0.0
2018-Feb-16 03:59N 51°58' E 004°02'0 0.0
2018-Feb-16 03:26N 51°58' E 004°02'0 0.0
2018-Feb-16 02:59N 51°58' E 004°02'0 0.0
2018-Feb-16 02:29N 51°58' E 004°02'0 0.0
2018-Feb-16 01:59N 51°58' E 004°02'0 0.0
2018-Feb-16 01:29N 51°58' E 004°02'0 0.0
2018-Feb-16 00:59N 51°58' E 004°02'0 0.0
2018-Feb-16 00:29N 51°58' E 004°02'0 0.0
2018-Feb-15 23:56N 51°58' E 004°02'  
Track history (hours):
 
Tides and Currents Weather Stations Pressure Air Temp Water Temp Dewpoint Dewpoint Depression Visibility Wind Speed Wind Dir Waves Ship Positions

Thalassa Hellas

Last reported at 2018-Feb-25 23:30 UTC. Time now 2018-Feb-25 23:37 UTC.
Position N 51°57' E 004°03'.

Length 368 m; draft 11.7 m.

Type: Ship (hazmat cat A). MMSI: 563377000.

Date/timePositionNaut miles runAvg speedWind from/ knotsBaromVisibWave heightAir tempDewpointWater temp
2018-Feb-25 23:30N 51°57' E 004°03'0 0.0
2018-Feb-25 23:00N 51°57' E 004°03'0 0.0
2018-Feb-25 22:30N 51°57' E 004°03'0 0.0
2018-Feb-25 22:00N 51°57' E 004°03'0 0.0
2018-Feb-25 21:30N 51°57' E 004°03'0 0.0
2018-Feb-25 21:00N 51°57' E 004°03'0 0.0
2018-Feb-25 20:30N 51°57' E 004°03'0 0.0
2018-Feb-25 20:00N 51°57' E 004°03'0 0.0
2018-Feb-25 19:30N 51°57' E 004°03'0 0.0
2018-Feb-25 19:00N 51°57' E 004°03'0 0.0
2018-Feb-25 18:30N 51°57' E 004°03'0 0.0
2018-Feb-25 18:00N 51°57' E 004°03'0 0.0
2018-Feb-25 17:30N 51°57' E 004°03'0 0.0
2018-Feb-25 17:00N 51°57' E 004°03'0 0.0
2018-Feb-25 16:30N 51°57' E 004°04'0 0.0
2018-Feb-25 16:00N 51°57' E 004°03'0 0.0
2018-Feb-25 15:30N 51°57' E 004°03'0 0.0
2018-Feb-25 15:00N 51°57' E 004°03'0 0.0
2018-Feb-25 14:30N 51°57' E 004°03'0 0.0
2018-Feb-25 14:00N 51°57' E 004°04'0 0.0
2018-Feb-25 13:30N 51°57' E 004°03'0 0.0
2018-Feb-25 13:00N 51°57' E 004°04'0 0.0
2018-Feb-25 12:30N 51°57' E 004°03'0 0.0
2018-Feb-25 12:00N 51°57' E 004°04'0 0.1
2018-Feb-25 11:30N 51°57' E 004°03'0 0.0
2018-Feb-25 11:00N 51°57' E 004°03'0 0.0
2018-Feb-25 10:30N 51°57' E 004°03'0 0.0
2018-Feb-25 10:00N 51°57' E 004°03'0 0.0
2018-Feb-25 09:30N 51°57' E 004°03'0 0.0
2018-Feb-25 09:00N 51°57' E 004°03'0 0.0
2018-Feb-25 08:30N 51°57' E 004°03'0 0.0
2018-Feb-25 08:00N 51°57' E 004°03'0 0.0
2018-Feb-25 07:30N 51°57' E 004°03'0 0.0
2018-Feb-25 07:00N 51°57' E 004°03'0 0.0
2018-Feb-25 06:30N 51°57' E 004°03'0 0.0
2018-Feb-25 06:00N 51°57' E 004°04'0 0.0
2018-Feb-25 05:30N 51°57' E 004°03'0 0.0
2018-Feb-25 05:00N 51°57' E 004°03'0 0.0
2018-Feb-25 04:30N 51°57' E 004°03'0 0.0
2018-Feb-25 04:00N 51°57' E 004°03'0 0.0
2018-Feb-25 03:30N 51°57' E 004°03'0 0.0
2018-Feb-25 03:00N 51°57' E 004°03'0 0.0
2018-Feb-25 02:30N 51°57' E 004°03'0 0.0
2018-Feb-25 02:00N 51°57' E 004°03'0 0.0
2018-Feb-25 01:30N 51°57' E 004°03'0 0.0
2018-Feb-25 01:00N 51°57' E 004°03'0 0.0
2018-Feb-25 00:30N 51°57' E 004°03'0 0.0
2018-Feb-25 00:00N 51°57' E 004°03'0 0.0
2018-Feb-24 23:30N 51°57' E 004°03'0 0.0
2018-Feb-24 23:00N 51°57' E 004°03'0 0.0
2018-Feb-24 22:30N 51°57' E 004°03'0 0.0
2018-Feb-24 22:00N 51°57' E 004°03'0 0.0
2018-Feb-24 21:30N 51°57' E 004°03'0 0.0
2018-Feb-24 21:00N 51°57' E 004°03'0 0.0
2018-Feb-24 20:30N 51°57' E 004°03'0 0.0
2018-Feb-24 20:00N 51°57' E 004°03'0 0.0
2018-Feb-24 19:30N 51°57' E 004°03'0 0.0
2018-Feb-24 19:00N 51°57' E 004°03'0 0.0
2018-Feb-24 18:30N 51°57' E 004°03'0 0.0
2018-Feb-24 18:00N 51°57' E 004°03'0 0.0
2018-Feb-24 17:30N 51°57' E 004°03'0 0.0
2018-Feb-24 17:00N 51°57' E 004°03'0 0.0
2018-Feb-24 16:30N 51°57' E 004°03'0 0.0
2018-Feb-24 16:00N 51°57' E 004°03'0 0.0
2018-Feb-24 15:30N 51°57' E 004°03'0 0.0
2018-Feb-24 15:00N 51°57' E 004°03'0 0.0
2018-Feb-24 14:30N 51°57' E 004°03'0 0.0
2018-Feb-24 14:00N 51°57' E 004°03'0 0.0
2018-Feb-24 13:30N 51°57' E 004°03'0 1.0
2018-Feb-24 13:00N 51°57' E 004°04'2 3.6
2018-Feb-24 12:30N 51°59' E 004°05'5 9.4
2018-Feb-24 12:00N 52°00' E 003°58'612.2
2018-Feb-24 11:30N 52°01' E 003°48'2 3.9
2018-Feb-24 11:00N 52°02' E 003°45'3 5.4
2018-Feb-24 10:30N 52°04' E 003°45'3 6.1
2018-Feb-24 10:00N 52°07' E 003°46'4 7.9
2018-Feb-24 09:30N 52°11' E 003°46'3 5.8
2018-Feb-24 09:00N 52°13' E 003°42'3 6.8
2018-Feb-24 08:30N 52°16' E 003°39'1 2.9
2018-Feb-24 08:00N 52°15' E 003°38'1 1.8
2018-Feb-24 07:30N 52°15' E 003°39'1 1.8
2018-Feb-24 07:00N 52°14' E 003°40'1 1.9
2018-Feb-24 06:30N 52°13' E 003°41'1 1.9
2018-Feb-24 06:00N 52°13' E 003°42'0 0.6
2018-Feb-24 05:29N 52°12' E 003°42'0 0.2
2018-Feb-24 04:59N 52°12' E 003°42'0 0.0
2018-Feb-24 04:29N 52°12' E 003°42'0 0.0
2018-Feb-24 03:59N 52°12' E 003°42'0 0.0
2018-Feb-24 03:29N 52°12' E 003°42'0 0.0
2018-Feb-24 02:59N 52°12' E 003°42'0 0.0
2018-Feb-24 02:29N 52°12' E 003°42'0 0.0
2018-Feb-24 01:59N 52°12' E 003°42'0 0.0
2018-Feb-24 01:29N 52°12' E 003°42'0 0.0
2018-Feb-24 00:59N 52°12' E 003°42'0 0.0
2018-Feb-24 00:29N 52°12' E 003°42'0 0.0
2018-Feb-23 23:59N 52°12' E 003°42'0 0.0
2018-Feb-23 23:29N 52°12' E 003°42'0 0.0
2018-Feb-23 22:59N 52°12' E 003°42'0 0.0
2018-Feb-23 22:26N 52°12' E 003°42'0 0.1
2018-Feb-23 21:59N 52°12' E 003°42'0 0.0
2018-Feb-23 21:26N 52°12' E 003°42'0 0.0
2018-Feb-23 20:59N 52°12' E 003°42'0 0.0
2018-Feb-23 20:29N 52°12' E 003°42'0 0.0
2018-Feb-23 19:59N 52°12' E 003°42'0 0.0
2018-Feb-23 19:29N 52°12' E 003°42'0 0.0
2018-Feb-23 18:59N 52°12' E 003°42'0 0.1
2018-Feb-23 18:29N 52°12' E 003°42'0 0.0
2018-Feb-23 17:59N 52°12' E 003°42'0 0.1
2018-Feb-23 17:29N 52°12' E 003°42'0 0.0
2018-Feb-23 16:59N 52°12' E 003°42'0 0.0
2018-Feb-23 16:29N 52°12' E 003°42'0 0.0
2018-Feb-23 15:56N 52°12' E 003°42'0 0.0
2018-Feb-23 15:29N 52°12' E 003°42'0 0.0
2018-Feb-23 14:59N 52°12' E 003°42'0 0.1
2018-Feb-23 14:29N 52°12' E 003°42'0 0.0
2018-Feb-23 13:59N 52°12' E 003°42'0 0.0
2018-Feb-23 13:26N 52°12' E 003°42'0 0.0
2018-Feb-23 12:59N 52°12' E 003°42'0 0.0
2018-Feb-23 12:29N 52°12' E 003°42'0 0.1
2018-Feb-23 11:59N 52°12' E 003°42'1 1.6
2018-Feb-23 11:30N 52°13' E 003°41'4 7.7
2018-Feb-23 11:00N 52°16' E 003°44'612.0
2018-Feb-23 10:30N 52°21' E 003°48'612.4
2018-Feb-23 10:00N 52°28' E 003°50'612.3
2018-Feb-23 09:30N 52°34' E 003°52'612.2
2018-Feb-23 09:00N 52°40' E 003°52'612.4
2018-Feb-23 08:30N 52°46' E 003°55'612.1
2018-Feb-23 08:00N 52°52' E 003°57'611.5
2018-Feb-23 07:30N 52°57' E 004°00'510.4
2018-Feb-23 07:00N 53°00' E 004°07'611.8
2018-Feb-23 06:30N 53°04' E 004°15'714.4
2018-Feb-23 06:00N 53°09' E 004°24'814.8
2018-Feb-23 05:28N 53°15' E 004°30'714.2
2018-Feb-23 04:58N 53°22' E 004°35'714.2
2018-Feb-23 04:29N 53°28' E 004°41'714.0
2018-Feb-23 04:00N 53°32' E 004°50'714.0
2018-Feb-23 03:30N 53°34' E 005°01'713.9
2018-Feb-23 02:58N 53°37' E 005°13'613.4
2018-Feb-23 02:29N 53°39' E 005°23'912.7
2018-Feb-23 01:47N 53°42' E 005°37'8013.1
2018-Feb-22 19:42N 54°02' E 007°48'314.5
2018-Feb-22 19:31N 54°01' E 007°53'814.7
2018-Feb-22 18:58N 54°01' E 008°06'715.1
2018-Feb-22 18:30N 53°60' E 008°18'1019.7
2018-Feb-22 18:01N 53°58' E 008°35'815.7
2018-Feb-22 17:30N 53°52' E 008°44'612.5
2018-Feb-22 17:00N 53°51' E 008°54'612.2
2018-Feb-22 16:30N 53°52' E 009°04'5 9.2
2018-Feb-22 16:00N 53°53' E 009°12'510.6
2018-Feb-22 15:30N 53°51' E 009°20'611.0
2018-Feb-22 15:00N 53°46' E 009°24'5 9.9
2018-Feb-22 14:30N 53°42' E 009°30'510.9
2018-Feb-22 14:00N 53°37' E 009°33'612.2
2018-Feb-22 13:30N 53°34' E 009°42'510.5
2018-Feb-22 13:00N 53°33' E 009°51'3 5.4
2018-Feb-22 12:30N 53°32' E 009°55'0 0.1
2018-Feb-22 11:58N 53°32' E 009°55'0 0.0
2018-Feb-22 11:28N 53°32' E 009°55'0 0.0
2018-Feb-22 10:58N 53°32' E 009°55'0 0.0
2018-Feb-22 10:28N 53°32' E 009°55'0 0.0
2018-Feb-22 09:58N 53°32' E 009°55'0 0.0
2018-Feb-22 09:28N 53°32' E 009°55'0 0.0
2018-Feb-22 08:58N 53°32' E 009°55'0 0.0
2018-Feb-22 08:28N 53°32' E 009°55'0 0.0
2018-Feb-22 07:58N 53°32' E 009°55'0 0.0
2018-Feb-22 07:28N 53°32' E 009°55'0 0.0
2018-Feb-22 06:58N 53°32' E 009°55'0 0.0
2018-Feb-22 06:28N 53°32' E 009°55'0 0.0
2018-Feb-22 05:58N 53°32' E 009°55'0 0.0
2018-Feb-22 05:28N 53°32' E 009°55'0 0.0
2018-Feb-22 04:58N 53°32' E 009°55'0 0.0
2018-Feb-22 04:28N 53°32' E 009°55'0 0.0
2018-Feb-22 03:58N 53°32' E 009°55'0 0.0
2018-Feb-22 03:28N 53°32' E 009°55'0 0.0
2018-Feb-22 02:58N 53°32' E 009°55'0 0.0
2018-Feb-22 02:28N 53°32' E 009°55'0 0.0
2018-Feb-22 01:58N 53°32' E 009°55'0 0.0
2018-Feb-22 01:28N 53°32' E 009°55'0 0.0
2018-Feb-22 00:58N 53°32' E 009°55'0 0.0
2018-Feb-22 00:28N 53°32' E 009°55'0 0.0
2018-Feb-21 23:58N 53°32' E 009°55'0 0.0
2018-Feb-21 23:28N 53°32' E 009°55'0 0.0
2018-Feb-21 22:58N 53°32' E 009°55'0 0.0
2018-Feb-21 22:28N 53°32' E 009°55'0 0.0
2018-Feb-21 21:58N 53°32' E 009°55'0 0.1
2018-Feb-21 21:28N 53°32' E 009°55'0 0.1
2018-Feb-21 20:58N 53°32' E 009°55'0 0.0
2018-Feb-21 20:28N 53°32' E 009°55'0 0.0
2018-Feb-21 19:58N 53°32' E 009°55'0 0.0
2018-Feb-21 19:28N 53°32' E 009°55'0 0.0
2018-Feb-21 18:58N 53°32' E 009°55'0 0.0
2018-Feb-21 18:28N 53°32' E 009°55'0 0.0
2018-Feb-21 17:58N 53°32' E 009°55'0 0.0
2018-Feb-21 17:28N 53°32' E 009°55'0 0.0
2018-Feb-21 16:58N 53°32' E 009°55'0 0.0
2018-Feb-21 16:28N 53°32' E 009°55'0 0.0
2018-Feb-21 15:58N 53°32' E 009°55'0 0.0
2018-Feb-21 15:28N 53°32' E 009°55'0 0.0
2018-Feb-21 14:58N 53°32' E 009°55'0 0.0
2018-Feb-21 14:28N 53°32' E 009°55'0 0.0
2018-Feb-21 13:58N 53°32' E 009°55'0 0.0
2018-Feb-21 13:28N 53°32' E 009°55'0 0.0
2018-Feb-21 12:58N 53°32' E 009°55'0 0.1
2018-Feb-21 12:28N 53°32' E 009°55'0 0.1
2018-Feb-21 11:58N 53°32' E 009°55'0 0.0
2018-Feb-21 11:28N 53°32' E 009°55'0 0.0
2018-Feb-21 10:58N 53°32' E 009°55'0 0.0
2018-Feb-21 10:25N 53°32' E 009°55'0 0.0
2018-Feb-21 09:58N 53°32' E 009°55'0 0.0
2018-Feb-21 09:28N 53°32' E 009°55'0 0.0
2018-Feb-21 08:58N 53°32' E 009°55'0 0.0
2018-Feb-21 08:28N 53°32' E 009°55'0 0.0
2018-Feb-21 07:58N 53°32' E 009°55'0 0.0
2018-Feb-21 07:28N 53°32' E 009°55'0 0.0
2018-Feb-21 06:58N 53°32' E 009°55'0 0.0
2018-Feb-21 06:28N 53°32' E 009°55'0 0.0
2018-Feb-21 05:58N 53°32' E 009°55'0 0.0
2018-Feb-21 05:28N 53°32' E 009°55'0 0.0
2018-Feb-21 04:58N 53°32' E 009°55'0 0.0
2018-Feb-21 04:28N 53°32' E 009°55'0 0.0
2018-Feb-21 03:58N 53°32' E 009°55'0 0.0
2018-Feb-21 03:28N 53°32' E 009°55'0 0.0
2018-Feb-21 02:58N 53°32' E 009°55'0 0.0
2018-Feb-21 02:28N 53°32' E 009°55'0 0.0
2018-Feb-21 01:58N 53°32' E 009°55'0 0.0
2018-Feb-21 01:28N 53°32' E 009°55'0 0.1
2018-Feb-21 00:58N 53°32' E 009°55'0 0.1
2018-Feb-21 00:28N 53°32' E 009°55'0 0.0
2018-Feb-20 23:58N 53°32' E 009°55'0 0.0
2018-Feb-20 23:28N 53°32' E 009°55'0 0.0
2018-Feb-20 22:58N 53°32' E 009°55'0 0.0
2018-Feb-20 22:28N 53°32' E 009°55'0 0.0
2018-Feb-20 21:58N 53°32' E 009°55'0 0.0
2018-Feb-20 21:28N 53°32' E 009°55'0 0.0
2018-Feb-20 20:58N 53°32' E 009°55'0 0.0
2018-Feb-20 20:28N 53°32' E 009°55'0 0.0
2018-Feb-20 19:58N 53°32' E 009°55'0 0.0
2018-Feb-20 19:28N 53°32' E 009°55'0 0.0
2018-Feb-20 18:58N 53°32' E 009°55'0 1.0
2018-Feb-20 18:30N 53°32' E 009°54'1 2.7
2018-Feb-20 18:00N 53°33' E 009°52'4 7.6
2018-Feb-20 17:30N 53°34' E 009°46'511.0
2018-Feb-20 17:01N 53°35' E 009°37'510.4
2018-Feb-20 16:30N 53°39' E 009°31'612.8
2018-Feb-20 16:00N 53°44' E 009°26'713.9
2018-Feb-20 15:31N 53°50' E 009°20'714.0
2018-Feb-20 15:01N 53°53' E 009°09'510.1
2018-Feb-20 14:30N 53°51' E 009°01'611.5
2018-Feb-20 14:00N 53°50' E 008°51'510.5
2018-Feb-20 13:30N 53°52' E 008°43'713.9
2018-Feb-20 13:00N 53°58' E 008°35'816.5
2018-Feb-20 12:30N 53°59' E 008°21'815.6
2018-Feb-20 12:00N 53°59' E 008°08'612.4
2018-Feb-20 11:29N 54°02' E 007°58'1 2.0
2018-Feb-20 11:00N 54°02' E 007°56'2 3.1
2018-Feb-20 10:30N 54°03' E 007°54'4 7.7
2018-Feb-20 10:00N 54°05' E 007°48'5 9.9
2018-Feb-20 09:30N 54°07' E 007°41'5 9.6
2018-Feb-20 09:00N 54°11' E 007°35'110 8.3
2018-Feb-19 19:47N 53°52' E 004°31'414.2
2018-Feb-19 19:29N 53°49' E 004°26'714.1
2018-Feb-19 19:00N 53°45' E 004°17'714.1
2018-Feb-19 18:30N 53°40' E 004°07'814.1
2018-Feb-19 17:57N 53°36' E 003°57'11611.5
2018-Feb-19 07:52N 51°56' E 002°20'410.9
2018-Feb-19 07:30N 51°54' E 002°14'611.1
2018-Feb-19 07:00N 51°52' E 002°05'611.4
2018-Feb-19 06:30N 51°50' E 001°57'510.7
2018-Feb-19 06:00N 51°48' E 001°49'5 9.8
2018-Feb-19 05:30N 51°50' E 001°42'510.1
2018-Feb-19 05:01N 51°52' E 001°34'611.2
2018-Feb-19 04:30N 51°56' E 001°27'611.1
2018-Feb-19 04:00N 51°57' E 001°19'1 2.6
2018-Feb-19 03:30N 51°58' E 001°17'0 0.0
2018-Feb-19 03:00N 51°58' E 001°17'0 0.0
2018-Feb-19 02:30N 51°58' E 001°17'0 0.0
2018-Feb-19 02:00N 51°58' E 001°17'0 0.0
2018-Feb-19 01:30N 51°58' E 001°17'0 0.0
2018-Feb-19 01:00N 51°58' E 001°17'0 0.0
2018-Feb-19 00:30N 51°58' E 001°17'0 0.0
2018-Feb-19 00:00N 51°58' E 001°17'0 0.0
2018-Feb-18 23:30N 51°58' E 001°17'0 0.0
2018-Feb-18 23:00N 51°58' E 001°17'0 0.0
2018-Feb-18 22:30N 51°58' E 001°17'0 0.0
2018-Feb-18 22:00N 51°58' E 001°17'0 0.0
2018-Feb-18 21:30N 51°58' E 001°17'0 0.0
2018-Feb-18 21:00N 51°58' E 001°17'0 0.0
2018-Feb-18 20:30N 51°58' E 001°17'0 0.0
2018-Feb-18 20:00N 51°58' E 001°17'0 0.0
2018-Feb-18 19:30N 51°58' E 001°17'0 0.0
2018-Feb-18 19:00N 51°58' E 001°17'0 0.0
2018-Feb-18 18:30N 51°58' E 001°17'0 0.1
2018-Feb-18 18:00N 51°58' E 001°17'0 0.1
2018-Feb-18 17:30N 51°58' E 001°17'0 0.0
2018-Feb-18 17:00N 51°58' E 001°17'0 0.0
2018-Feb-18 16:30N 51°58' E 001°17'0 0.0
2018-Feb-18 16:00N 51°58' E 001°17'0 0.0
2018-Feb-18 15:30N 51°58' E 001°17'0 0.0
2018-Feb-18 15:00N 51°58' E 001°17'0 0.0
2018-Feb-18 14:30N 51°58' E 001°17'0 0.0
2018-Feb-18 14:00N 51°58' E 001°17'0 0.0
2018-Feb-18 13:30N 51°58' E 001°17'0 0.0
2018-Feb-18 13:00N 51°58' E 001°17'0 0.0
2018-Feb-18 12:30N 51°58' E 001°17'0 0.0
2018-Feb-18 12:00N 51°58' E 001°17'0 0.0
2018-Feb-18 11:30N 51°58' E 001°17'0 0.0
2018-Feb-18 11:00N 51°58' E 001°17'0 0.0
2018-Feb-18 10:30N 51°58' E 001°17'0 0.0
2018-Feb-18 10:00N 51°58' E 001°17'0 0.0
2018-Feb-18 09:30N 51°58' E 001°17'0 0.0
2018-Feb-18 09:00N 51°58' E 001°17'0 0.0
2018-Feb-18 08:30N 51°58' E 001°17'0 0.0
2018-Feb-18 08:00N 51°58' E 001°17'0 0.0
2018-Feb-18 07:30N 51°58' E 001°17'0 0.0
2018-Feb-18 07:00N 51°58' E 001°17'0 0.0
2018-Feb-18 06:30N 51°58' E 001°17'0 0.0
2018-Feb-18 06:00N 51°58' E 001°17'0 0.0
2018-Feb-18 05:30N 51°58' E 001°17'0 0.0
2018-Feb-18 05:00N 51°58' E 001°17'0 0.0
2018-Feb-18 04:30N 51°58' E 001°17'0 0.0
2018-Feb-18 04:00N 51°58' E 001°17'0 0.0
2018-Feb-18 03:30N 51°58' E 001°17'0 0.0
2018-Feb-18 03:00N 51°58' E 001°17'0 0.0
2018-Feb-18 02:30N 51°58' E 001°17'0 0.0
2018-Feb-18 02:00N 51°58' E 001°17'0 0.0
2018-Feb-18 01:30N 51°58' E 001°17'0 0.0
2018-Feb-18 01:00N 51°58' E 001°17'0 0.0
2018-Feb-18 00:30N 51°58' E 001°17'0 0.0
2018-Feb-18 00:00N 51°58' E 001°17'0 0.0
2018-Feb-17 23:30N 51°58' E 001°17'0 0.0
2018-Feb-17 23:00N 51°58' E 001°17'0 0.0
2018-Feb-17 22:30N 51°58' E 001°17'0 0.0
2018-Feb-17 22:00N 51°58' E 001°17'0 0.0
2018-Feb-17 21:30N 51°58' E 001°17'0 0.0
2018-Feb-17 21:00N 51°58' E 001°17'0 0.0
2018-Feb-17 20:30N 51°58' E 001°17'0 0.0
2018-Feb-17 20:00N 51°58' E 001°17'0 0.0
2018-Feb-17 19:30N 51°58' E 001°17'0 0.0
2018-Feb-17 19:00N 51°58' E 001°17'0 0.0
2018-Feb-17 18:30N 51°58' E 001°17'0 0.0
2018-Feb-17 18:00N 51°58' E 001°17'0 0.0
2018-Feb-17 17:30N 51°58' E 001°17'0 0.0
2018-Feb-17 17:00N 51°58' E 001°17'0 0.0
2018-Feb-17 16:30N 51°58' E 001°17'0 0.0
2018-Feb-17 16:00N 51°58' E 001°17'0 0.0
2018-Feb-17 15:30N 51°58' E 001°17'0 0.0
2018-Feb-17 15:00N 51°58' E 001°17'0 0.0
2018-Feb-17 14:30N 51°58' E 001°17'0 0.0
2018-Feb-17 14:00N 51°58' E 001°17'0 0.0
2018-Feb-17 13:30N 51°58' E 001°17'0 0.0
2018-Feb-17 13:00N 51°58' E 001°17'0 0.0
2018-Feb-17 12:30N 51°58' E 001°17'0 0.0
2018-Feb-17 12:00N 51°58' E 001°17'0 0.0
2018-Feb-17 11:30N 51°58' E 001°17'0 0.0
2018-Feb-17 11:00N 51°58' E 001°17'0 0.0
2018-Feb-17 10:30N 51°58' E 001°17'0 0.0
2018-Feb-17 10:00N 51°58' E 001°17'0 0.0
2018-Feb-17 09:30N 51°58' E 001°17'0 0.0
2018-Feb-17 09:00N 51°58' E 001°17'0 0.0
2018-Feb-17 08:30N 51°58' E 001°17'0 0.0
2018-Feb-17 08:00N 51°58' E 001°17'0 0.0
2018-Feb-17 07:30N 51°58' E 001°17'0 0.0
2018-Feb-17 07:00N 51°58' E 001°17'0 0.0
2018-Feb-17 06:30N 51°58' E 001°17'0 0.0
2018-Feb-17 06:00N 51°58' E 001°17'0 0.0
2018-Feb-17 05:30N 51°58' E 001°17'0 0.0
2018-Feb-17 05:00N 51°58' E 001°17'0 0.0
2018-Feb-17 04:31N 51°58' E 001°17'1 1.1
2018-Feb-17 04:01N 51°57' E 001°18'1 1.9
2018-Feb-17 03:30N 51°57' E 001°19'3 6.0
2018-Feb-17 03:01N 51°56' E 001°23'612.3
2018-Feb-17 02:30N 51°56' E 001°33'5 9.7
2018-Feb-17 02:00N 51°52' E 001°38'3 6.9
2018-Feb-17 01:31N 51°51' E 001°44'611.1
2018-Feb-17 01:01N 51°49' E 001°52'713.8
2018-Feb-17 00:30N 51°52' E 002°02'714.1
2018-Feb-17 00:00N 51°55' E 002°13'4 8.9
2018-Feb-16 23:30N 51°56' E 002°20'510.0
2018-Feb-16 23:00N 51°57' E 002°28'611.9
2018-Feb-16 22:30N 51°59' E 002°37'713.4
2018-Feb-16 22:00N 52°01' E 002°47'713.3
2018-Feb-16 21:30N 52°02' E 002°58'713.2
2018-Feb-16 21:00N 52°03' E 003°08'713.1
2018-Feb-16 20:30N 52°04' E 003°19'713.0
2018-Feb-16 20:00N 52°04' E 003°30'612.9
2018-Feb-16 19:30N 52°04' E 003°40'713.5
2018-Feb-16 19:00N 52°03' E 003°51'4 8.0
2018-Feb-16 18:30N 52°01' E 003°57'612.4
2018-Feb-16 18:00N 51°58' E 004°05'2 3.1
2018-Feb-16 17:30N 51°58' E 004°03'0 0.8
2018-Feb-16 16:59N 51°58' E 004°02'0 0.0
2018-Feb-16 16:29N 51°58' E 004°02'0 0.0
2018-Feb-16 15:59N 51°58' E 004°02'0 0.0
2018-Feb-16 15:29N 51°58' E 004°02'0 0.0
2018-Feb-16 14:56N 51°58' E 004°02'0 0.0
2018-Feb-16 14:29N 51°58' E 004°02'0 0.0
2018-Feb-16 13:59N 51°58' E 004°02'0 0.0
2018-Feb-16 13:29N 51°58' E 004°02'0 0.0
2018-Feb-16 12:59N 51°58' E 004°02'0 0.0
2018-Feb-16 12:29N 51°58' E 004°02'0 0.0
2018-Feb-16 11:59N 51°58' E 004°02'0 0.0
2018-Feb-16 11:29N 51°58' E 004°02'0 0.0
2018-Feb-16 10:56N 51°58' E 004°02'0 0.0
2018-Feb-16 10:29N 51°58' E 004°02'0 0.0
2018-Feb-16 09:59N 51°58' E 004°02'0 0.0
2018-Feb-16 09:29N 51°58' E 004°02'0 0.0
2018-Feb-16 08:59N 51°58' E 004°02'0 0.0
2018-Feb-16 08:29N 51°58' E 004°02'0 0.0
2018-Feb-16 07:59N 51°58' E 004°02'0 0.0
2018-Feb-16 07:29N 51°58' E 004°02'0 0.0
2018-Feb-16 06:59N 51°58' E 004°02'0 0.0
2018-Feb-16 06:29N 51°58' E 004°02'0 0.0
2018-Feb-16 05:59N 51°58' E 004°02'0 0.0
2018-Feb-16 05:29N 51°58' E 004°02'0 0.0
2018-Feb-16 04:59N 51°58' E 004°02'0 0.0
2018-Feb-16 04:29N 51°58' E 004°02'0 0.0
2018-Feb-16 03:59N 51°58' E 004°02'0 0.0
2018-Feb-16 03:26N 51°58' E 004°02'0 0.0
2018-Feb-16 02:59N 51°58' E 004°02'0 0.0
2018-Feb-16 02:29N 51°58' E 004°02'0 0.0
2018-Feb-16 01:59N 51°58' E 004°02'0 0.0
2018-Feb-16 01:29N 51°58' E 004°02'0 0.0
2018-Feb-16 00:59N 51°58' E 004°02'0 0.0
2018-Feb-16 00:29N 51°58' E 004°02'0 0.0
2018-Feb-15 23:56N 51°58' E 004°02'  

Dump ship's entire track history